78AR weather

CLOSED Tucker Field
Hughes, Arkansas, United States

Public forecast

Using degrees Fahrenheit for public forecast. Weather courtesy of forecast.io.

Closest aviation weather report (METAR) to Tucker Field

Closest report is Tunica Municipal Airport, 16.6 nm (30.7 km) SSE. Retrieved 2019/10/22 06:55 UTC (55 minutes ago):

KUTA 220655Z AUTO 22004KT 10SM 10/07 A2996 RMK AO2 TSNO

Closest aviation forecast (TAF) to Tucker Field

Closest forecast is Memphis International Airport, 25.1 nm (46.5 km) ENE. Retrieved 2019/10/22 06:22 UTC (1 hour ago):

TAF KMEM 220520Z 2206/2312 26006KT P6SM SKC WS020/29040KT FM220800 27005KT P6SM SKC FM221500 28012G18KT P6SM SKC FM230000 24005KT P6SM SKC